sensor_id;sensor_type;location;lat;lon;timestamp;temperature;humidity
65637;DHT22;52327;42.622;23.316;2024-03-02T00:00:22;8.51;77.87
65637;DHT22;52327;42.622;23.316;2024-03-02T00:02:49;8.47;78.05
65637;DHT22;52327;42.622;23.316;2024-03-02T00:05:19;8.46;77.36
65637;DHT22;52327;42.622;23.316;2024-03-02T00:07:47;8.51;77.61
65637;DHT22;52327;42.622;23.316;2024-03-02T00:10:20;8.51;77.60
65637;DHT22;52327;42.622;23.316;2024-03-02T00:12:48;8.34;77.63
65637;DHT22;52327;42.622;23.316;2024-03-02T00:17:59;8.51;77.24
65637;DHT22;52327;42.622;23.316;2024-03-02T00:20:25;8.41;78.07
65637;DHT22;52327;42.622;23.316;2024-03-02T00:23:00;8.33;78.19
65637;DHT22;52327;42.622;23.316;2024-03-02T00:25:49;8.34;78.42
65637;DHT22;52327;42.622;23.316;2024-03-02T00:28:21;8.29;78.54
65637;DHT22;52327;42.622;23.316;2024-03-02T00:33:41;8.30;78.98
65637;DHT22;52327;42.622;23.316;2024-03-02T00:36:08;8.36;79.01
65637;DHT22;52327;42.622;23.316;2024-03-02T00:38:34;8.36;79.22
65637;DHT22;52327;42.622;23.316;2024-03-02T00:41:07;8.34;79.27
65637;DHT22;52327;42.622;23.316;2024-03-02T00:46:15;8.14;78.83
65637;DHT22;52327;42.622;23.316;2024-03-02T00:49:17;8.17;79.89
65637;DHT22;52327;42.622;23.316;2024-03-02T00:51:46;8.26;80.19
65637;DHT22;52327;42.622;23.316;2024-03-02T00:54:14;8.36;79.33
65637;DHT22;52327;42.622;23.316;2024-03-02T00:56:42;8.48;79.29
65637;DHT22;52327;42.622;23.316;2024-03-02T00:59:07;8.51;79.01
65637;DHT22;52327;42.622;23.316;2024-03-02T01:01:33;8.46;78.92
65637;DHT22;52327;42.622;23.316;2024-03-02T01:03:59;8.54;79.34
65637;DHT22;52327;42.622;23.316;2024-03-02T01:06:25;8.56;79.72
65637;DHT22;52327;42.622;23.316;2024-03-02T01:08:50;8.47;78.91
65637;DHT22;52327;42.622;23.316;2024-03-02T01:11:16;8.41;78.83
65637;DHT22;52327;42.622;23.316;2024-03-02T01:13:43;8.12;79.49
65637;DHT22;52327;42.622;23.316;2024-03-02T01:16:09;7.85;80.83
65637;DHT22;52327;42.622;23.316;2024-03-02T01:18:35;7.79;81.39
65637;DHT22;52327;42.622;23.316;2024-03-02T01:21:01;7.86;81.03
65637;DHT22;52327;42.622;23.316;2024-03-02T01:23:26;7.96;80.93
65637;DHT22;52327;42.622;23.316;2024-03-02T01:25:52;7.76;81.29
65637;DHT22;52327;42.622;23.316;2024-03-02T01:28:18;7.92;81.18
65637;DHT22;52327;42.622;23.316;2024-03-02T01:30:45;8.00;80.29
65637;DHT22;52327;42.622;23.316;2024-03-02T01:33:11;7.95;80.94
65637;DHT22;52327;42.622;23.316;2024-03-02T01:35:37;8.07;81.41
65637;DHT22;52327;42.622;23.316;2024-03-02T01:38:03;8.06;80.64
65637;DHT22;52327;42.622;23.316;2024-03-02T01:40:28;7.97;80.61
65637;DHT22;52327;42.622;23.316;2024-03-02T01:42:54;7.72;81.13
65637;DHT22;52327;42.622;23.316;2024-03-02T01:45:21;7.86;81.76
65637;DHT22;52327;42.622;23.316;2024-03-02T01:47:47;7.79;81.35
65637;DHT22;52327;42.622;23.316;2024-03-02T01:50:12;7.76;81.59
65637;DHT22;52327;42.622;23.316;2024-03-02T01:52:38;7.90;82.04
65637;DHT22;52327;42.622;23.316;2024-03-02T01:55:04;8.14;81.62
65637;DHT22;52327;42.622;23.316;2024-03-02T01:57:31;8.23;81.42
65637;DHT22;52327;42.622;23.316;2024-03-02T01:59:56;8.36;81.31
65637;DHT22;52327;42.622;23.316;2024-03-02T02:02:22;8.41;81.37
65637;DHT22;52327;42.622;23.316;2024-03-02T02:04:47;8.43;81.56
65637;DHT22;52327;42.622;23.316;2024-03-02T02:07:13;8.47;81.55
65637;DHT22;52327;42.622;23.316;2024-03-02T02:09:41;8.50;81.29
65637;DHT22;52327;42.622;23.316;2024-03-02T02:12:06;8.51;81.05
65637;DHT22;52327;42.622;23.316;2024-03-02T02:14:32;8.54;81.46
65637;DHT22;52327;42.622;23.316;2024-03-02T02:16:59;8.60;81.32
65637;DHT22;52327;42.622;23.316;2024-03-02T02:19:24;8.63;80.99
65637;DHT22;52327;42.622;23.316;2024-03-02T02:21:49;8.64;80.95
65637;DHT22;52327;42.622;23.316;2024-03-02T02:24:15;8.63;80.18
65637;DHT22;52327;42.622;23.316;2024-03-02T02:26:40;8.70;80.91
65637;DHT22;52327;42.622;23.316;2024-03-02T02:29:06;8.67;81.04
65637;DHT22;52327;42.622;23.316;2024-03-02T02:31:41;8.78;80.05
65637;DHT22;52327;42.622;23.316;2024-03-02T02:34:07;8.78;80.73
65637;DHT22;52327;42.622;23.316;2024-03-02T02:36:33;8.70;80.38
65637;DHT22;52327;42.622;23.316;2024-03-02T02:39:02;8.72;80.86
65637;DHT22;52327;42.622;23.316;2024-03-02T02:41:29;8.72;80.94
65637;DHT22;52327;42.622;23.316;2024-03-02T02:43:55;8.79;79.40
65637;DHT22;52327;42.622;23.316;2024-03-02T02:46:20;8.41;79.94
65637;DHT22;52327;42.622;23.316;2024-03-02T02:48:45;8.36;81.07
65637;DHT22;52327;42.622;23.316;2024-03-02T02:51:11;8.44;80.86
65637;DHT22;52327;42.622;23.316;2024-03-02T02:53:36;8.20;80.43
65637;DHT22;52327;42.622;23.316;2024-03-02T02:56:06;8.22;81.75
65637;DHT22;52327;42.622;23.316;2024-03-02T02:58:32;8.34;81.76
65637;DHT22;52327;42.622;23.316;2024-03-02T03:00:58;8.36;80.82
65637;DHT22;52327;42.622;23.316;2024-03-02T03:03:23;8.36;81.10
65637;DHT22;52327;42.622;23.316;2024-03-02T03:05:48;8.40;81.24
65637;DHT22;52327;42.622;23.316;2024-03-02T03:08:14;8.50;80.39
65637;DHT22;52327;42.622;23.316;2024-03-02T03:10:41;8.12;80.34
65637;DHT22;52327;42.622;23.316;2024-03-02T03:13:07;7.97;81.70
65637;DHT22;52327;42.622;23.316;2024-03-02T03:15:36;7.95;81.75
65637;DHT22;52327;42.622;23.316;2024-03-02T03:18:04;7.88;81.77
65637;DHT22;52327;42.622;23.316;2024-03-02T03:20:30;7.59;82.37
65637;DHT22;52327;42.622;23.316;2024-03-02T03:22:59;7.59;83.28
65637;DHT22;52327;42.622;23.316;2024-03-02T03:25:25;7.82;82.42
65637;DHT22;52327;42.622;23.316;2024-03-02T03:27:50;7.89;82.61
65637;DHT22;52327;42.622;23.316;2024-03-02T03:30:17;7.89;82.31
65637;DHT22;52327;42.622;23.316;2024-03-02T03:32:43;8.02;82.54
65637;DHT22;52327;42.622;23.316;2024-03-02T03:35:08;8.13;81.66
65637;DHT22;52327;42.622;23.316;2024-03-02T03:37:34;7.83;81.63
65637;DHT22;52327;42.622;23.316;2024-03-02T03:40:00;7.82;82.42
65637;DHT22;52327;42.622;23.316;2024-03-02T03:42:26;7.68;82.49
65637;DHT22;52327;42.622;23.316;2024-03-02T03:44:52;7.68;82.22
65637;DHT22;52327;42.622;23.316;2024-03-02T03:47:17;7.61;83.06
65637;DHT22;52327;42.622;23.316;2024-03-02T03:49:42;7.71;83.38
65637;DHT22;52327;42.622;23.316;2024-03-02T03:52:08;7.74;82.88
65637;DHT22;52327;42.622;23.316;2024-03-02T03:54:33;7.51;83.03
65637;DHT22;52327;42.622;23.316;2024-03-02T03:56:59;7.68;83.67
65637;DHT22;52327;42.622;23.316;2024-03-02T03:59:24;7.86;83.47
65637;DHT22;52327;42.622;23.316;2024-03-02T04:01:49;8.02;83.16
65637;DHT22;52327;42.622;23.316;2024-03-02T04:04:15;8.09;82.66
65637;DHT22;52327;42.622;23.316;2024-03-02T04:06:40;8.17;82.16
65637;DHT22;52327;42.622;23.316;2024-03-02T04:09:06;8.23;82.37
65637;DHT22;52327;42.622;23.316;2024-03-02T04:11:31;8.30;82.36
65637;DHT22;52327;42.622;23.316;2024-03-02T04:13:56;8.34;82.22
65637;DHT22;52327;42.622;23.316;2024-03-02T04:16:22;8.40;81.96
65637;DHT22;52327;42.622;23.316;2024-03-02T04:18:48;8.41;81.74
65637;DHT22;52327;42.622;23.316;2024-03-02T04:21:13;8.44;81.84
65637;DHT22;52327;42.622;23.316;2024-03-02T04:23:38;8.50;81.89
65637;DHT22;52327;42.622;23.316;2024-03-02T04:26:04;8.53;81.89
65637;DHT22;52327;42.622;23.316;2024-03-02T04:28:29;8.53;81.89
65637;DHT22;52327;42.622;23.316;2024-03-02T04:30:55;8.56;81.85
65637;DHT22;52327;42.622;23.316;2024-03-02T04:33:20;8.58;81.93
65637;DHT22;52327;42.622;23.316;2024-03-02T04:35:45;8.57;81.91
65637;DHT22;52327;42.622;23.316;2024-03-02T04:38:11;8.56;81.98
65637;DHT22;52327;42.622;23.316;2024-03-02T04:40:37;8.57;82.16
65637;DHT22;52327;42.622;23.316;2024-03-02T04:43:02;8.61;82.16
65637;DHT22;52327;42.622;23.316;2024-03-02T04:45:28;8.58;82.30
65637;DHT22;52327;42.622;23.316;2024-03-02T04:47:54;8.63;82.35
65637;DHT22;52327;42.622;23.316;2024-03-02T04:50:19;8.65;82.39
65637;DHT22;52327;42.622;23.316;2024-03-02T04:52:45;8.65;82.47
65637;DHT22;52327;42.622;23.316;2024-03-02T04:55:10;8.67;82.47
65637;DHT22;52327;42.622;23.316;2024-03-02T04:57:53;8.65;82.39
65637;DHT22;52327;42.622;23.316;2024-03-02T05:00:21;8.68;82.59
65637;DHT22;52327;42.622;23.316;2024-03-02T05:02:47;8.63;82.67
65637;DHT22;52327;42.622;23.316;2024-03-02T05:05:12;8.63;82.87
65637;DHT22;52327;42.622;23.316;2024-03-02T05:07:38;8.64;82.94
65637;DHT22;52327;42.622;23.316;2024-03-02T05:10:03;8.61;83.08
65637;DHT22;52327;42.622;23.316;2024-03-02T05:12:29;8.60;82.99
65637;DHT22;52327;42.622;23.316;2024-03-02T05:15:14;8.51;82.29
65637;DHT22;52327;42.622;23.316;2024-03-02T05:17:41;8.65;81.82
65637;DHT22;52327;42.622;23.316;2024-03-02T05:20:09;8.48;82.16
65637;DHT22;52327;42.622;23.316;2024-03-02T05:22:36;8.51;82.02
65637;DHT22;52327;42.622;23.316;2024-03-02T05:25:02;8.57;82.10
65637;DHT22;52327;42.622;23.316;2024-03-02T05:27:28;8.44;82.99
65637;DHT22;52327;42.622;23.316;2024-03-02T05:29:53;8.33;83.82
65637;DHT22;52327;42.622;23.316;2024-03-02T05:32:19;8.03;84.01
65637;DHT22;52327;42.622;23.316;2024-03-02T05:34:44;8.06;84.61
65637;DHT22;52327;42.622;23.316;2024-03-02T05:37:10;8.07;85.24
65637;DHT22;52327;42.622;23.316;2024-03-02T05:39:35;7.90;84.48
65637;DHT22;52327;42.622;23.316;2024-03-02T05:42:00;7.83;85.19
65637;DHT22;52327;42.622;23.316;2024-03-02T05:44:26;7.81;85.71
65637;DHT22;52327;42.622;23.316;2024-03-02T05:46:51;7.82;85.42
65637;DHT22;52327;42.622;23.316;2024-03-02T05:49:17;7.90;86.49
65637;DHT22;52327;42.622;23.316;2024-03-02T05:51:43;7.90;86.11
65637;DHT22;52327;42.622;23.316;2024-03-02T05:54:08;7.99;86.63
65637;DHT22;52327;42.622;23.316;2024-03-02T05:56:34;8.06;86.67
65637;DHT22;52327;42.622;23.316;2024-03-02T05:59:00;8.16;86.36
65637;DHT22;52327;42.622;23.316;2024-03-02T06:01:45;8.23;86.17
65637;DHT22;52327;42.622;23.316;2024-03-02T06:04:17;8.32;86.17
65637;DHT22;52327;42.622;23.316;2024-03-02T06:06:43;8.36;86.14
65637;DHT22;52327;42.622;23.316;2024-03-02T06:09:09;8.40;86.15
65637;DHT22;52327;42.622;23.316;2024-03-02T06:11:35;8.40;86.22
65637;DHT22;52327;42.622;23.316;2024-03-02T06:14:01;8.41;86.44
65637;DHT22;52327;42.622;23.316;2024-03-02T06:16:27;8.41;86.42
65637;DHT22;52327;42.622;23.316;2024-03-02T06:18:52;8.47;86.37
65637;DHT22;52327;42.622;23.316;2024-03-02T06:21:19;8.51;86.27
65637;DHT22;52327;42.622;23.316;2024-03-02T06:23:45;8.56;86.14
65637;DHT22;52327;42.622;23.316;2024-03-02T06:26:10;8.63;85.77
65637;DHT22;52327;42.622;23.316;2024-03-02T06:28:35;8.57;85.40
65637;DHT22;52327;42.622;23.316;2024-03-02T06:31:02;8.58;85.84
65637;DHT22;52327;42.622;23.316;2024-03-02T06:33:27;8.64;85.99
65637;DHT22;52327;42.622;23.316;2024-03-02T06:35:53;8.65;86.00
65637;DHT22;52327;42.622;23.316;2024-03-02T06:38:19;8.61;85.45
65637;DHT22;52327;42.622;23.316;2024-03-02T06:40:44;8.67;85.87
65637;DHT22;52327;42.622;23.316;2024-03-02T06:43:10;8.65;84.94
65637;DHT22;52327;42.622;23.316;2024-03-02T06:45:35;8.78;84.93
65637;DHT22;52327;42.622;23.316;2024-03-02T06:48:00;8.88;85.02
65637;DHT22;52327;42.622;23.316;2024-03-02T06:50:26;8.92;83.82
65637;DHT22;52327;42.622;23.316;2024-03-02T06:52:52;8.85;84.89
65637;DHT22;52327;42.622;23.316;2024-03-02T06:55:17;8.71;84.44
65637;DHT22;52327;42.622;23.316;2024-03-02T06:57:42;8.79;84.45
65637;DHT22;52327;42.622;23.316;2024-03-02T07:00:08;8.75;84.80
65637;DHT22;52327;42.622;23.316;2024-03-02T07:02:34;8.78;84.80
65637;DHT22;52327;42.622;23.316;2024-03-02T07:05:01;8.74;84.82
65637;DHT22;52327;42.622;23.316;2024-03-02T07:07:26;8.75;85.31
65637;DHT22;52327;42.622;23.316;2024-03-02T07:09:52;8.70;84.36
65637;DHT22;52327;42.622;23.316;2024-03-02T07:12:17;8.61;84.27
65637;DHT22;52327;42.622;23.316;2024-03-02T07:14:42;8.68;84.80
65637;DHT22;52327;42.622;23.316;2024-03-02T07:17:26;8.74;85.05
65637;DHT22;52327;42.622;23.316;2024-03-02T07:19:52;8.75;85.11
65637;DHT22;52327;42.622;23.316;2024-03-02T07:22:20;8.74;85.14
65637;DHT22;52327;42.622;23.316;2024-03-02T07:24:46;8.65;85.41
65637;DHT22;52327;42.622;23.316;2024-03-02T07:27:12;8.64;85.46
65637;DHT22;52327;42.622;23.316;2024-03-02T07:29:38;8.63;85.62
65637;DHT22;52327;42.622;23.316;2024-03-02T07:32:04;8.60;85.60
65637;DHT22;52327;42.622;23.316;2024-03-02T07:34:30;8.58;85.73
65637;DHT22;52327;42.622;23.316;2024-03-02T07:36:55;8.68;85.80
65637;DHT22;52327;42.622;23.316;2024-03-02T07:39:21;8.75;85.70
65637;DHT22;52327;42.622;23.316;2024-03-02T07:41:47;8.87;85.34
65637;DHT22;52327;42.622;23.316;2024-03-02T07:44:12;8.93;85.20
65637;DHT22;52327;42.622;23.316;2024-03-02T07:46:42;8.97;84.68
65637;DHT22;52327;42.622;23.316;2024-03-02T07:49:08;9.02;84.57
65637;DHT22;52327;42.622;23.316;2024-03-02T07:51:33;9.11;84.32
65637;DHT22;52327;42.622;23.316;2024-03-02T07:53:59;9.15;84.45
65637;DHT22;52327;42.622;23.316;2024-03-02T07:56:24;9.16;84.52
65637;DHT22;52327;42.622;23.316;2024-03-02T07:58:50;9.15;84.37
65637;DHT22;52327;42.622;23.316;2024-03-02T08:01:15;9.15;84.32
65637;DHT22;52327;42.622;23.316;2024-03-02T08:03:41;9.18;84.46
65637;DHT22;52327;42.622;23.316;2024-03-02T08:06:06;9.18;84.39
65637;DHT22;52327;42.622;23.316;2024-03-02T08:08:32;9.20;84.38
65637;DHT22;52327;42.622;23.316;2024-03-02T08:10:57;9.26;84.06
65637;DHT22;52327;42.622;23.316;2024-03-02T08:13:23;9.20;83.53
65637;DHT22;52327;42.622;23.316;2024-03-02T08:15:48;9.12;83.01
65637;DHT22;52327;42.622;23.316;2024-03-02T08:18:14;9.14;84.01
65637;DHT22;52327;42.622;23.316;2024-03-02T08:20:40;9.23;83.94
65637;DHT22;52327;42.622;23.316;2024-03-02T08:23:06;9.16;83.24
65637;DHT22;52327;42.622;23.316;2024-03-02T08:25:31;9.16;83.94
65637;DHT22;52327;42.622;23.316;2024-03-02T08:27:57;9.22;83.61
65637;DHT22;52327;42.622;23.316;2024-03-02T08:30:23;9.28;83.54
65637;DHT22;52327;42.622;23.316;2024-03-02T08:32:48;9.35;83.68
65637;DHT22;52327;42.622;23.316;2024-03-02T08:35:14;9.28;83.41
65637;DHT22;52327;42.622;23.316;2024-03-02T08:37:41;9.32;83.66
65637;DHT22;52327;42.622;23.316;2024-03-02T08:40:08;9.29;82.77
65637;DHT22;52327;42.622;23.316;2024-03-02T08:42:33;9.36;83.40
65637;DHT22;52327;42.622;23.316;2024-03-02T08:44:59;9.50;82.92
65637;DHT22;52327;42.622;23.316;2024-03-02T08:47:26;9.67;83.17
65637;DHT22;52327;42.622;23.316;2024-03-02T08:49:52;9.63;82.07
65637;DHT22;52327;42.622;23.316;2024-03-02T08:52:17;9.77;81.44
65637;DHT22;52327;42.622;23.316;2024-03-02T08:54:43;9.89;81.90
65637;DHT22;52327;42.622;23.316;2024-03-02T08:57:08;9.97;81.89
65637;DHT22;52327;42.622;23.316;2024-03-02T08:59:34;9.91;81.22
65637;DHT22;52327;42.622;23.316;2024-03-02T09:01:59;10.05;81.26
65637;DHT22;52327;42.622;23.316;2024-03-02T09:04:24;10.05;80.56
65637;DHT22;52327;42.622;23.316;2024-03-02T09:06:50;10.08;80.82
65637;DHT22;52327;42.622;23.316;2024-03-02T09:09:15;10.05;80.50
65637;DHT22;52327;42.622;23.316;2024-03-02T09:11:41;10.15;81.71
65637;DHT22;52327;42.622;23.316;2024-03-02T09:14:06;10.22;81.03
65637;DHT22;52327;42.622;23.316;2024-03-02T09:16:32;10.24;81.49
65637;DHT22;52327;42.622;23.316;2024-03-02T09:18:57;10.20;81.41
65637;DHT22;52327;42.622;23.316;2024-03-02T09:21:23;10.27;81.34
65637;DHT22;52327;42.622;23.316;2024-03-02T09:23:48;10.15;81.49
65637;DHT22;52327;42.622;23.316;2024-03-02T09:26:14;10.15;81.71
65637;DHT22;52327;42.622;23.316;2024-03-02T09:28:43;10.14;81.92
65637;DHT22;52327;42.622;23.316;2024-03-02T09:31:09;10.10;80.97
65637;DHT22;52327;42.622;23.316;2024-03-02T09:33:34;10.08;81.37
65637;DHT22;52327;42.622;23.316;2024-03-02T09:35:59;10.15;81.70
65637;DHT22;52327;42.622;23.316;2024-03-02T09:38:25;10.17;81.79
65637;DHT22;52327;42.622;23.316;2024-03-02T09:40:51;10.24;81.50
65637;DHT22;52327;42.622;23.316;2024-03-02T09:43:16;10.30;81.40
65637;DHT22;52327;42.622;23.316;2024-03-02T09:45:42;10.32;81.54
65637;DHT22;52327;42.622;23.316;2024-03-02T09:48:08;10.28;81.49
65637;DHT22;52327;42.622;23.316;2024-03-02T09:50:34;10.27;81.24
65637;DHT22;52327;42.622;23.316;2024-03-02T09:52:59;10.25;81.21
65637;DHT22;52327;42.622;23.316;2024-03-02T09:55:25;10.05;79.70
65637;DHT22;52327;42.622;23.316;2024-03-02T09:57:50;9.95;81.10
65637;DHT22;52327;42.622;23.316;2024-03-02T10:00:17;10.05;81.18
65637;DHT22;52327;42.622;23.316;2024-03-02T10:02:42;10.03;81.48
65637;DHT22;52327;42.622;23.316;2024-03-02T10:05:11;10.01;81.46
65637;DHT22;52327;42.622;23.316;2024-03-02T10:07:37;9.98;81.80
65637;DHT22;52327;42.622;23.316;2024-03-02T10:10:13;9.98;81.35
65637;DHT22;52327;42.622;23.316;2024-03-02T10:12:39;10.01;81.74
65637;DHT22;52327;42.622;23.316;2024-03-02T10:15:05;9.91;80.27
65637;DHT22;52327;42.622;23.316;2024-03-02T10:17:33;9.73;80.66
65637;DHT22;52327;42.622;23.316;2024-03-02T10:19:59;9.79;81.91
65637;DHT22;52327;42.622;23.316;2024-03-02T10:22:24;9.80;82.43
65637;DHT22;52327;42.622;23.316;2024-03-02T10:24:51;9.81;82.57
65637;DHT22;52327;42.622;23.316;2024-03-02T10:27:22;9.79;82.61
65637;DHT22;52327;42.622;23.316;2024-03-02T10:29:49;9.81;82.86
65637;DHT22;52327;42.622;23.316;2024-03-02T10:32:15;9.79;82.56
65637;DHT22;52327;42.622;23.316;2024-03-02T10:34:42;9.77;82.69
65637;DHT22;52327;42.622;23.316;2024-03-02T10:37:08;9.74;82.44
65637;DHT22;52327;42.622;23.316;2024-03-02T10:39:34;9.74;82.92
65637;DHT22;52327;42.622;23.316;2024-03-02T10:42:02;9.76;83.00
65637;DHT22;52327;42.622;23.316;2024-03-02T10:44:28;9.69;83.10
65637;DHT22;52327;42.622;23.316;2024-03-02T10:46:55;9.67;83.03
65637;DHT22;52327;42.622;23.316;2024-03-02T10:49:22;9.70;83.39
65637;DHT22;52327;42.622;23.316;2024-03-02T10:51:49;9.73;82.92
65637;DHT22;52327;42.622;23.316;2024-03-02T10:54:14;9.73;83.24
65637;DHT22;52327;42.622;23.316;2024-03-02T10:56:41;9.76;83.17
65637;DHT22;52327;42.622;23.316;2024-03-02T10:59:28;9.79;82.93
65637;DHT22;52327;42.622;23.316;2024-03-02T11:01:57;9.81;83.05
65637;DHT22;52327;42.622;23.316;2024-03-02T11:04:25;9.80;83.22
65637;DHT22;52327;42.622;23.316;2024-03-02T11:06:51;9.84;83.05
65637;DHT22;52327;42.622;23.316;2024-03-02T11:09:22;9.86;82.80
65637;DHT22;52327;42.622;23.316;2024-03-02T11:12:08;9.83;83.04
65637;DHT22;52327;42.622;23.316;2024-03-02T11:14:37;9.76;83.19
65637;DHT22;52327;42.622;23.316;2024-03-02T11:17:06;9.71;82.93
65637;DHT22;52327;42.622;23.316;2024-03-02T11:19:31;9.61;82.35
65637;DHT22;52327;42.622;23.316;2024-03-02T11:21:58;9.40;81.90
65637;DHT22;52327;42.622;23.316;2024-03-02T11:26:50;9.26;83.16
65637;DHT22;52327;42.622;23.316;2024-03-02T11:32:05;9.18;83.08
65637;DHT22;52327;42.622;23.316;2024-03-02T11:34:32;9.09;83.74
65637;DHT22;52327;42.622;23.316;2024-03-02T11:36:58;9.01;83.79
65637;DHT22;52327;42.622;23.316;2024-03-02T11:39:27;9.04;84.10
65637;DHT22;52327;42.622;23.316;2024-03-02T11:41:54;8.99;84.14
65637;DHT22;52327;42.622;23.316;2024-03-02T11:44:20;8.98;84.35
65637;DHT22;52327;42.622;23.316;2024-03-02T11:46:52;8.97;84.21
65637;DHT22;52327;42.622;23.316;2024-03-02T11:52:03;9.08;84.89
65637;DHT22;52327;42.622;23.316;2024-03-02T11:54:30;9.12;84.95
65637;DHT22;52327;42.622;23.316;2024-03-02T11:56:58;9.23;84.75
65637;DHT22;52327;42.622;23.316;2024-03-02T11:59:26;9.30;84.72
65637;DHT22;52327;42.622;23.316;2024-03-02T12:01:51;9.23;83.39
65637;DHT22;52327;42.622;23.316;2024-03-02T12:04:18;9.26;84.50
65637;DHT22;52327;42.622;23.316;2024-03-02T12:06:43;9.30;83.70
65637;DHT22;52327;42.622;23.316;2024-03-02T12:09:09;9.39;84.14
65637;DHT22;52327;42.622;23.316;2024-03-02T12:11:37;9.46;84.30
65637;DHT22;52327;42.622;23.316;2024-03-02T12:14:02;9.52;84.19
65637;DHT22;52327;42.622;23.316;2024-03-02T12:16:29;9.57;83.65
65637;DHT22;52327;42.622;23.316;2024-03-02T12:18:55;9.60;83.93
65637;DHT22;52327;42.622;23.316;2024-03-02T12:21:20;9.69;83.91
65637;DHT22;52327;42.622;23.316;2024-03-02T12:23:46;9.73;83.77
65637;DHT22;52327;42.622;23.316;2024-03-02T12:26:11;9.81;83.75
65637;DHT22;52327;42.622;23.316;2024-03-02T12:28:37;9.86;83.62
65637;DHT22;52327;42.622;23.316;2024-03-02T12:31:02;9.84;82.92
65637;DHT22;52327;42.622;23.316;2024-03-02T12:33:28;9.87;83.36
65637;DHT22;52327;42.622;23.316;2024-03-02T12:35:56;9.86;82.84
65637;DHT22;52327;42.622;23.316;2024-03-02T12:38:22;9.80;83.25
65637;DHT22;52327;42.622;23.316;2024-03-02T12:40:51;9.76;83.00
65637;DHT22;52327;42.622;23.316;2024-03-02T12:43:17;9.67;82.86
65637;DHT22;52327;42.622;23.316;2024-03-02T12:45:43;9.71;83.51
65637;DHT22;52327;42.622;23.316;2024-03-02T12:48:08;9.71;83.68
65637;DHT22;52327;42.622;23.316;2024-03-02T12:50:33;9.83;83.56
65637;DHT22;52327;42.622;23.316;2024-03-02T12:52:59;9.80;83.04
65637;DHT22;52327;42.622;23.316;2024-03-02T12:55:25;9.87;83.37
65637;DHT22;52327;42.622;23.316;2024-03-02T12:57:51;9.90;82.83
65637;DHT22;52327;42.622;23.316;2024-03-02T13:00:18;9.90;82.85
65637;DHT22;52327;42.622;23.316;2024-03-02T13:02:45;9.93;82.35
65637;DHT22;52327;42.622;23.316;2024-03-02T13:05:11;9.98;82.93
65637;DHT22;52327;42.622;23.316;2024-03-02T13:07:37;10.05;83.06
65637;DHT22;52327;42.622;23.316;2024-03-02T13:10:03;10.08;82.53
65637;DHT22;52327;42.622;23.316;2024-03-02T13:12:30;10.03;81.77
65637;DHT22;52327;42.622;23.316;2024-03-02T13:14:57;10.10;82.36
65637;DHT22;52327;42.622;23.316;2024-03-02T13:17:23;10.14;82.45
65637;DHT22;52327;42.622;23.316;2024-03-02T13:20:01;10.15;82.27
65637;DHT22;52327;42.622;23.316;2024-03-02T13:22:26;10.15;82.45
65637;DHT22;52327;42.622;23.316;2024-03-02T13:24:52;10.18;82.36
65637;DHT22;52327;42.622;23.316;2024-03-02T13:27:21;10.20;82.44
65637;DHT22;52327;42.622;23.316;2024-03-02T13:29:46;10.15;82.02
65637;DHT22;52327;42.622;23.316;2024-03-02T13:32:15;10.12;82.52
65637;DHT22;52327;42.622;23.316;2024-03-02T13:34:41;10.15;82.37
65637;DHT22;52327;42.622;23.316;2024-03-02T13:37:07;10.14;82.62
65637;DHT22;52327;42.622;23.316;2024-03-02T13:39:33;10.15;82.25
65637;DHT22;52327;42.622;23.316;2024-03-02T13:42:11;10.11;82.07
65637;DHT22;52327;42.622;23.316;2024-03-02T13:44:38;10.12;82.24
65637;DHT22;52327;42.622;23.316;2024-03-02T13:47:05;10.10;82.34
65637;DHT22;52327;42.622;23.316;2024-03-02T13:49:31;10.08;82.51
65637;DHT22;52327;42.622;23.316;2024-03-02T13:52:03;10.12;82.66
65637;DHT22;52327;42.622;23.316;2024-03-02T13:54:37;10.08;82.11
65637;DHT22;52327;42.622;23.316;2024-03-02T13:57:03;10.10;82.62
65637;DHT22;52327;42.622;23.316;2024-03-02T13:59:29;10.12;82.76
65637;DHT22;52327;42.622;23.316;2024-03-02T14:01:54;10.11;82.90
65637;DHT22;52327;42.622;23.316;2024-03-02T14:04:19;10.10;82.92
65637;DHT22;52327;42.622;23.316;2024-03-02T14:06:45;10.11;83.00
65637;DHT22;52327;42.622;23.316;2024-03-02T14:09:11;10.12;83.04
65637;DHT22;52327;42.622;23.316;2024-03-02T14:11:36;10.12;83.09
65637;DHT22;52327;42.622;23.316;2024-03-02T14:14:02;10.12;83.06
65637;DHT22;52327;42.622;23.316;2024-03-02T14:16:28;10.14;83.05
65637;DHT22;52327;42.622;23.316;2024-03-02T14:18:53;10.10;83.09
65637;DHT22;52327;42.622;23.316;2024-03-02T14:21:18;10.07;83.02
65637;DHT22;52327;42.622;23.316;2024-03-02T14:23:44;10.10;83.07
65637;DHT22;52327;42.622;23.316;2024-03-02T14:26:09;10.08;83.09
65637;DHT22;52327;42.622;23.316;2024-03-02T14:28:35;10.11;83.11
65637;DHT22;52327;42.622;23.316;2024-03-02T14:31:00;10.11;82.90
65637;DHT22;52327;42.622;23.316;2024-03-02T14:33:27;10.12;82.88
65637;DHT22;52327;42.622;23.316;2024-03-02T14:35:52;10.17;82.62
65637;DHT22;52327;42.622;23.316;2024-03-02T14:38:19;10.18;82.65
65637;DHT22;52327;42.622;23.316;2024-03-02T14:40:44;10.25;82.70
65637;DHT22;52327;42.622;23.316;2024-03-02T14:43:10;10.28;82.25
65637;DHT22;52327;42.622;23.316;2024-03-02T14:45:35;10.40;82.34
65637;DHT22;52327;42.622;23.316;2024-03-02T14:48:00;10.48;82.25
65637;DHT22;52327;42.622;23.316;2024-03-02T14:50:27;10.46;82.16
65637;DHT22;52327;42.622;23.316;2024-03-02T14:52:53;10.45;82.04
65637;DHT22;52327;42.622;23.316;2024-03-02T14:55:18;10.46;82.16
65637;DHT22;52327;42.622;23.316;2024-03-02T14:57:44;10.45;82.23
65637;DHT22;52327;42.622;23.316;2024-03-02T15:00:09;10.46;82.14
65637;DHT22;52327;42.622;23.316;2024-03-02T15:02:37;10.46;82.28
65637;DHT22;52327;42.622;23.316;2024-03-02T15:05:03;10.40;82.31
65637;DHT22;52327;42.622;23.316;2024-03-02T15:07:29;10.40;82.36
65637;DHT22;52327;42.622;23.316;2024-03-02T15:09:54;10.41;82.38
65637;DHT22;52327;42.622;23.316;2024-03-02T15:12:20;10.34;81.63
65637;DHT22;52327;42.622;23.316;2024-03-02T15:14:45;10.32;82.04
65637;DHT22;52327;42.622;23.316;2024-03-02T15:17:13;10.41;81.76
65637;DHT22;52327;42.622;23.316;2024-03-02T15:19:45;10.31;81.34
65637;DHT22;52327;42.622;23.316;2024-03-02T15:22:11;10.32;82.21
65637;DHT22;52327;42.622;23.316;2024-03-02T15:24:37;10.31;82.26
65637;DHT22;52327;42.622;23.316;2024-03-02T15:27:03;10.35;82.20
65637;DHT22;52327;42.622;23.316;2024-03-02T15:29:33;10.30;81.02
65637;DHT22;52327;42.622;23.316;2024-03-02T15:31:58;10.30;80.69
65637;DHT22;52327;42.622;23.316;2024-03-02T15:34:24;10.25;81.25
65637;DHT22;52327;42.622;23.316;2024-03-02T15:36:50;10.20;80.97
65637;DHT22;52327;42.622;23.316;2024-03-02T15:39:18;10.11;82.10